Lawton, Oklahoma
Current Conditions -  °F | °C
As of 4:58 PM on Thursday 20 Nov 2014 (Local Time) from KFSI Reporting Station
Clear Clear  
Wind Chill: 16°   Ceiling: Unl
Heat Index: 16°   Visibility: 10mi
Dew Point:   Wind: 6mph
Humidity: 50%   Direction: 120°ESE
Pressure: 29.95"   Gusts: NA
Location:  34.61°N, 98.39°W
Report Text: KFSI 202258Z AUTO 12005KT 10SM CLR 17/06 A2995 RMK AO2 SLP143 T01650059
Loading
Personal Weather Stations






























Interactive Weather Map New forecast layout! Learn more

10-Day Weather Forecast

Advertisements
Track Severe Weather on mobile